sensor_id;sensor_type;location;lat;lon;timestamp;pressure;altitude;pressure_sealevel;temperature;humidity
23321;BME280;33376;51.306;4.752;2023-04-09T00:02:20;103005.09;;;9.47;nan
23321;BME280;33376;51.306;4.752;2023-04-09T00:04:46;102991.81;;;9.50;nan
23321;BME280;33376;51.306;4.752;2023-04-09T00:07:11;102998.03;;;9.49;nan
23321;BME280;33376;51.306;4.752;2023-04-09T00:09:36;102994.34;;;9.56;nan
23321;BME280;33376;51.306;4.752;2023-04-09T00:12:01;103001.53;;;9.51;nan
23321;BME280;33376;51.306;4.752;2023-04-09T00:14:27;102997.72;;;9.65;nan
23321;BME280;33376;51.306;4.752;2023-04-09T00:16:52;102994.22;;;9.65;nan
23321;BME280;33376;51.306;4.752;2023-04-09T00:19:18;102995.13;;;9.62;nan
23321;BME280;33376;51.306;4.752;2023-04-09T00:21:43;102994.16;;;9.69;nan
23321;BME280;33376;51.306;4.752;2023-04-09T00:24:09;102985.22;;;9.76;nan
23321;BME280;33376;51.306;4.752;2023-04-09T00:26:34;102987.03;;;9.73;nan
23321;BME280;33376;51.306;4.752;2023-04-09T00:28:59;102976.41;;;9.74;nan
23321;BME280;33376;51.306;4.752;2023-04-09T00:31:25;102963.94;;;9.81;nan
23321;BME280;33376;51.306;4.752;2023-04-09T00:33:50;102971.91;;;9.79;nan
23321;BME280;33376;51.306;4.752;2023-04-09T00:36:15;102961.28;;;9.81;nan
23321;BME280;33376;51.306;4.752;2023-04-09T00:38:40;102963.03;;;9.80;nan
23321;BME280;33376;51.306;4.752;2023-04-09T00:41:06;102961.38;;;9.76;nan
23321;BME280;33376;51.306;4.752;2023-04-09T00:43:32;102969.47;;;9.66;nan
23321;BME280;33376;51.306;4.752;2023-04-09T00:45:57;102968.75;;;9.56;nan
23321;BME280;33376;51.306;4.752;2023-04-09T00:48:23;102973.16;;;9.56;nan
23321;BME280;33376;51.306;4.752;2023-04-09T00:50:49;102968.75;;;9.56;nan
23321;BME280;33376;51.306;4.752;2023-04-09T00:53:14;102970.69;;;9.47;nan
23321;BME280;33376;51.306;4.752;2023-04-09T00:55:40;102963.63;;;9.47;nan
23321;BME280;33376;51.306;4.752;2023-04-09T00:58:05;102959.13;;;9.52;nan
23321;BME280;33376;51.306;4.752;2023-04-09T01:00:30;102947.50;;;9.59;nan
23321;BME280;33376;51.306;4.752;2023-04-09T01:02:56;102943.09;;;9.60;nan
23321;BME280;33376;51.306;4.752;2023-04-09T01:05:21;102934.16;;;9.67;nan
23321;BME280;33376;51.306;4.752;2023-04-09T01:08:07;102928.06;;;9.62;nan
23321;BME280;33376;51.306;4.752;2023-04-09T01:10:34;102926.25;;;9.64;nan
23321;BME280;33376;51.306;4.752;2023-04-09T01:13:05;102927.97;;;9.66;nan
23321;BME280;33376;51.306;4.752;2023-04-09T01:15:32;102925.38;;;9.65;nan
23321;BME280;33376;51.306;4.752;2023-04-09T01:18:09;102913.91;;;9.63;nan
23321;BME280;33376;51.306;4.752;2023-04-09T01:20:38;102904.13;;;9.66;nan
23321;BME280;33376;51.306;4.752;2023-04-09T01:23:18;102906.75;;;9.68;nan
23321;BME280;33376;51.306;4.752;2023-04-09T01:28:35;102894.38;;;9.70;nan
23321;BME280;33376;51.306;4.752;2023-04-09T01:31:06;102900.59;;;9.66;nan
23321;BME280;33376;51.306;4.752;2023-04-09T01:33:31;102902.25;;;9.73;nan
23321;BME280;33376;51.306;4.752;2023-04-09T01:35:58;102892.63;;;9.67;nan
23321;BME280;33376;51.306;4.752;2023-04-09T01:38:23;102897.78;;;9.76;nan
23321;BME280;33376;51.306;4.752;2023-04-09T01:40:50;102891.56;;;9.77;nan
23321;BME280;33376;51.306;4.752;2023-04-09T01:43:16;102892.31;;;9.84;nan
23321;BME280;33376;51.306;4.752;2023-04-09T01:45:41;102888.94;;;9.76;nan
23321;BME280;33376;51.306;4.752;2023-04-09T01:48:07;102889.78;;;9.79;nan
23321;BME280;33376;51.306;4.752;2023-04-09T01:50:33;102897.69;;;9.81;nan
23321;BME280;33376;51.306;4.752;2023-04-09T01:52:59;102886.19;;;9.82;nan
23321;BME280;33376;51.306;4.752;2023-04-09T01:55:25;102892.31;;;9.84;nan
23321;BME280;33376;51.306;4.752;2023-04-09T01:57:50;102889.53;;;9.91;nan
23321;BME280;33376;51.306;4.752;2023-04-09T02:00:16;102886.00;;;9.91;nan
23321;BME280;33376;51.306;4.752;2023-04-09T02:02:42;102890.38;;;9.93;nan
23321;BME280;33376;51.306;4.752;2023-04-09T02:05:11;102887.50;;;10.04;nan
23321;BME280;33376;51.306;4.752;2023-04-09T02:07:41;102880.53;;;10.00;nan
23321;BME280;33376;51.306;4.752;2023-04-09T02:10:08;102882.25;;;10.01;nan
23321;BME280;33376;51.306;4.752;2023-04-09T02:12:35;102876.25;;;9.93;nan
23321;BME280;33376;51.306;4.752;2023-04-09T02:15:01;102880.69;;;9.91;nan
23321;BME280;33376;51.306;4.752;2023-04-09T02:17:27;102884.97;;;9.98;nan
23321;BME280;33376;51.306;4.752;2023-04-09T02:19:52;102875.34;;;9.94;nan
23321;BME280;33376;51.306;4.752;2023-04-09T02:22:17;102876.28;;;9.91;nan
23321;BME280;33376;51.306;4.752;2023-04-09T02:24:43;102871.84;;;9.92;nan
23321;BME280;33376;51.306;4.752;2023-04-09T02:27:08;102871.78;;;9.95;nan
23321;BME280;33376;51.306;4.752;2023-04-09T02:29:33;102872.03;;;9.81;nan
23321;BME280;33376;51.306;4.752;2023-04-09T02:31:59;102870.19;;;9.86;nan
23321;BME280;33376;51.306;4.752;2023-04-09T02:34:24;102865.56;;;9.96;nan
23321;BME280;33376;51.306;4.752;2023-04-09T02:36:50;102862.13;;;9.92;nan
23321;BME280;33376;51.306;4.752;2023-04-09T02:39:15;102864.59;;;10.01;nan
23321;BME280;33376;51.306;4.752;2023-04-09T02:41:40;102872.81;;;9.88;nan
23321;BME280;33376;51.306;4.752;2023-04-09T02:44:05;102866.97;;;9.71;nan
23321;BME280;33376;51.306;4.752;2023-04-09T02:46:31;102861.41;;;9.84;nan
23321;BME280;33376;51.306;4.752;2023-04-09T02:48:56;102867.56;;;9.85;nan
23321;BME280;33376;51.306;4.752;2023-04-09T02:51:21;102856.19;;;9.80;nan
23321;BME280;33376;51.306;4.752;2023-04-09T02:53:46;102860.34;;;9.93;nan
23321;BME280;33376;51.306;4.752;2023-04-09T02:56:12;102855.19;;;9.85;nan
23321;BME280;33376;51.306;4.752;2023-04-09T02:58:37;102861.66;;;9.71;nan
23321;BME280;33376;51.306;4.752;2023-04-09T03:01:03;102855.50;;;9.69;nan
23321;BME280;33376;51.306;4.752;2023-04-09T03:03:28;102852.03;;;9.65;nan
23321;BME280;33376;51.306;4.752;2023-04-09T03:05:54;102849.28;;;9.73;nan
23321;BME280;33376;51.306;4.752;2023-04-09T03:08:20;102853.06;;;9.60;nan
23321;BME280;33376;51.306;4.752;2023-04-09T03:10:45;102847.56;;;9.69;nan
23321;BME280;33376;51.306;4.752;2023-04-09T03:13:10;102844.81;;;9.76;nan
23321;BME280;33376;51.306;4.752;2023-04-09T03:15:35;102848.25;;;9.78;nan
23321;BME280;33376;51.306;4.752;2023-04-09T03:18:00;102848.38;;;9.72;nan
23321;BME280;33376;51.306;4.752;2023-04-09T03:20:26;102853.63;;;9.75;nan
23321;BME280;33376;51.306;4.752;2023-04-09T03:22:51;102844.56;;;9.87;nan
23321;BME280;33376;51.306;4.752;2023-04-09T03:25:16;102844.81;;;9.76;nan
23321;BME280;33376;51.306;4.752;2023-04-09T03:27:43;102835.09;;;9.75;nan
23321;BME280;33376;51.306;4.752;2023-04-09T03:30:08;102836.09;;;9.70;nan
23321;BME280;33376;51.306;4.752;2023-04-09T03:32:34;102830.06;;;9.62;nan
23321;BME280;33376;51.306;4.752;2023-04-09T03:35:05;102830.97;;;9.59;nan
23321;BME280;33376;51.306;4.752;2023-04-09T03:37:30;102836.25;;;9.61;nan
23321;BME280;33376;51.306;4.752;2023-04-09T03:39:55;102819.34;;;9.68;nan
23321;BME280;33376;51.306;4.752;2023-04-09T03:42:21;102827.19;;;9.72;nan
23321;BME280;33376;51.306;4.752;2023-04-09T03:44:46;102825.69;;;9.59;nan
23321;BME280;33376;51.306;4.752;2023-04-09T03:47:11;102820.25;;;9.65;nan
23321;BME280;33376;51.306;4.752;2023-04-09T03:49:36;102818.56;;;9.63;nan
23321;BME280;33376;51.306;4.752;2023-04-09T03:52:02;102819.38;;;9.66;nan
23321;BME280;33376;51.306;4.752;2023-04-09T03:54:30;102826.41;;;9.67;nan
23321;BME280;33376;51.306;4.752;2023-04-09T03:56:55;102814.53;;;9.86;nan
23321;BME280;33376;51.306;4.752;2023-04-09T03:59:21;102820.66;;;9.90;nan
23321;BME280;33376;51.306;4.752;2023-04-09T04:01:46;102819.88;;;9.85;nan
23321;BME280;33376;51.306;4.752;2023-04-09T04:04:12;102812.66;;;9.93;nan
23321;BME280;33376;51.306;4.752;2023-04-09T04:06:37;102820.97;;;9.73;nan
23321;BME280;33376;51.306;4.752;2023-04-09T04:09:02;102818.28;;;9.78;nan
23321;BME280;33376;51.306;4.752;2023-04-09T04:11:28;102811.22;;;9.77;nan
23321;BME280;33376;51.306;4.752;2023-04-09T04:13:53;102818.06;;;9.87;nan
23321;BME280;33376;51.306;4.752;2023-04-09T04:16:20;102813.88;;;9.75;nan
23321;BME280;33376;51.306;4.752;2023-04-09T04:18:46;102814.97;;;9.65;nan
23321;BME280;33376;51.306;4.752;2023-04-09T04:21:12;102813.91;;;9.74;nan
23321;BME280;33376;51.306;4.752;2023-04-09T04:23:37;102811.38;;;9.69;nan
23321;BME280;33376;51.306;4.752;2023-04-09T04:26:05;102811.25;;;9.75;nan
23321;BME280;33376;51.306;4.752;2023-04-09T04:28:33;102816.53;;;9.75;nan
23321;BME280;33376;51.306;4.752;2023-04-09T04:30:59;102819.78;;;9.45;nan
23321;BME280;33376;51.306;4.752;2023-04-09T04:33:24;102820.88;;;9.34;nan
23321;BME280;33376;51.306;4.752;2023-04-09T04:35:49;102830.88;;;9.18;nan
23321;BME280;33376;51.306;4.752;2023-04-09T04:38:14;102828.34;;;9.11;nan
23321;BME280;33376;51.306;4.752;2023-04-09T04:40:40;102829.22;;;9.10;nan
23321;BME280;33376;51.306;4.752;2023-04-09T04:43:05;102822.28;;;9.04;nan
23321;BME280;33376;51.306;4.752;2023-04-09T04:45:30;102824.19;;;8.96;nan
23321;BME280;33376;51.306;4.752;2023-04-09T04:47:55;102826.00;;;8.93;nan
23321;BME280;33376;51.306;4.752;2023-04-09T04:50:20;102833.19;;;8.84;nan
23321;BME280;33376;51.306;4.752;2023-04-09T04:52:46;102832.34;;;8.81;nan
23321;BME280;33376;51.306;4.752;2023-04-09T04:55:11;102836.09;;;8.66;nan
23321;BME280;33376;51.306;4.752;2023-04-09T04:57:36;102838.06;;;8.54;nan
23321;BME280;33376;51.306;4.752;2023-04-09T05:00:01;102837.94;;;8.64;nan
23321;BME280;33376;51.306;4.752;2023-04-09T05:02:27;102832.56;;;8.69;nan
23321;BME280;33376;51.306;4.752;2023-04-09T05:04:52;102829.00;;;8.70;nan
23321;BME280;33376;51.306;4.752;2023-04-09T05:07:17;102823.88;;;8.61;nan
23321;BME280;33376;51.306;4.752;2023-04-09T05:09:42;102816.00;;;8.56;nan
23321;BME280;33376;51.306;4.752;2023-04-09T05:12:08;102809.91;;;8.51;nan
23321;BME280;33376;51.306;4.752;2023-04-09T05:14:33;102822.09;;;8.63;nan
23321;BME280;33376;51.306;4.752;2023-04-09T05:16:58;102817.91;;;8.48;nan
23321;BME280;33376;51.306;4.752;2023-04-09T05:19:24;102818.47;;;8.67;nan
23321;BME280;33376;51.306;4.752;2023-04-09T05:21:49;102811.56;;;8.60;nan
23321;BME280;33376;51.306;4.752;2023-04-09T05:24:14;102812.22;;;8.74;nan
23321;BME280;33376;51.306;4.752;2023-04-09T05:26:40;102809.59;;;8.72;nan
23321;BME280;33376;51.306;4.752;2023-04-09T05:29:05;102804.25;;;8.75;nan
23321;BME280;33376;51.306;4.752;2023-04-09T05:31:30;102790.19;;;8.72;nan
23321;BME280;33376;51.306;4.752;2023-04-09T05:33:55;102800.09;;;8.59;nan
23321;BME280;33376;51.306;4.752;2023-04-09T05:36:21;102794.81;;;8.59;nan
23321;BME280;33376;51.306;4.752;2023-04-09T05:38:46;102796.91;;;8.93;nan
23321;BME280;33376;51.306;4.752;2023-04-09T05:41:12;102799.56;;;8.93;nan
23321;BME280;33376;51.306;4.752;2023-04-09T05:43:37;102796.00;;;8.93;nan
23321;BME280;33376;51.306;4.752;2023-04-09T05:46:03;102796.16;;;8.84;nan
23321;BME280;33376;51.306;4.752;2023-04-09T05:48:28;102794.66;;;8.68;nan
23321;BME280;33376;51.306;4.752;2023-04-09T05:50:53;102794.28;;;8.91;nan
23321;BME280;33376;51.306;4.752;2023-04-09T05:53:19;102795.91;;;9.00;nan
23321;BME280;33376;51.306;4.752;2023-04-09T05:55:44;102802.09;;;8.99;nan
23321;BME280;33376;51.306;4.752;2023-04-09T05:58:10;102795.03;;;8.99;nan
23321;BME280;33376;51.306;4.752;2023-04-09T06:00:36;102793.94;;;9.11;nan
23321;BME280;33376;51.306;4.752;2023-04-09T06:03:01;102797.47;;;9.10;nan
23321;BME280;33376;51.306;4.752;2023-04-09T06:05:26;102794.81;;;9.11;nan
23321;BME280;33376;51.306;4.752;2023-04-09T06:07:52;102793.94;;;9.11;nan
23321;BME280;33376;51.306;4.752;2023-04-09T06:10:17;102794.66;;;9.20;nan
23321;BME280;33376;51.306;4.752;2023-04-09T06:12:42;102804.34;;;9.21;nan
23321;BME280;33376;51.306;4.752;2023-04-09T06:15:08;102803.06;;;9.42;nan
23321;BME280;33376;51.306;4.752;2023-04-09T06:17:33;102802.94;;;9.48;nan
23321;BME280;33376;51.306;4.752;2023-04-09T06:19:58;102813.53;;;9.49;nan
23321;BME280;33376;51.306;4.752;2023-04-09T06:22:23;102811.47;;;9.65;nan
23321;BME280;33376;51.306;4.752;2023-04-09T06:24:49;102811.53;;;9.62;nan
23321;BME280;33376;51.306;4.752;2023-04-09T06:27:14;102814.91;;;9.70;nan
23321;BME280;33376;51.306;4.752;2023-04-09T06:29:39;102825.31;;;9.79;nan
23321;BME280;33376;51.306;4.752;2023-04-09T06:32:05;102822.59;;;9.82;nan
23321;BME280;33376;51.306;4.752;2023-04-09T06:34:30;102831.97;;;9.98;nan
23321;BME280;33376;51.306;4.752;2023-04-09T06:36:55;102836.06;;;10.15;nan
23321;BME280;33376;51.306;4.752;2023-04-09T06:39:20;102831.91;;;10.42;nan
23321;BME280;33376;51.306;4.752;2023-04-09T06:41:46;102838.28;;;10.73;nan
23321;BME280;33376;51.306;4.752;2023-04-09T06:44:11;102832.41;;;10.61;nan
23321;BME280;33376;51.306;4.752;2023-04-09T06:46:36;102837.31;;;10.76;nan
23321;BME280;33376;51.306;4.752;2023-04-09T06:49:02;102835.78;;;10.67;nan
23321;BME280;33376;51.306;4.752;2023-04-09T06:51:27;102844.25;;;11.18;nan
23321;BME280;33376;51.306;4.752;2023-04-09T06:53:52;102831.75;;;11.23;nan
23321;BME280;33376;51.306;4.752;2023-04-09T06:56:17;102833.03;;;11.40;nan
23321;BME280;33376;51.306;4.752;2023-04-09T06:58:43;102815.38;;;11.71;nan
23321;BME280;33376;51.306;4.752;2023-04-09T07:01:08;102808.97;;;11.78;nan
23321;BME280;33376;51.306;4.752;2023-04-09T07:03:33;102793.97;;;12.07;nan
23321;BME280;33376;51.306;4.752;2023-04-09T07:05:58;102788.38;;;11.87;nan
23321;BME280;33376;51.306;4.752;2023-04-09T07:08:24;102767.09;;;12.16;nan
23321;BME280;33376;51.306;4.752;2023-04-09T07:10:49;102775.31;;;11.79;nan
23321;BME280;33376;51.306;4.752;2023-04-09T07:13:14;102768.59;;;11.95;nan
23321;BME280;33376;51.306;4.752;2023-04-09T07:15:40;102748.63;;;12.39;nan
23321;BME280;33376;51.306;4.752;2023-04-09T07:18:05;102754.44;;;12.24;nan
23321;BME280;33376;51.306;4.752;2023-04-09T07:20:30;102747.84;;;12.08;nan
23321;BME280;33376;51.306;4.752;2023-04-09T07:22:55;102750.91;;;12.23;nan
23321;BME280;33376;51.306;4.752;2023-04-09T07:25:21;102746.78;;;12.41;nan
23321;BME280;33376;51.306;4.752;2023-04-09T07:27:46;102737.09;;;12.38;nan
23321;BME280;33376;51.306;4.752;2023-04-09T07:30:12;102701.09;;;13.06;nan
23321;BME280;33376;51.306;4.752;2023-04-09T07:32:37;102691.41;;;13.29;nan
23321;BME280;33376;51.306;4.752;2023-04-09T07:35:03;102637.00;;;14.02;nan
23321;BME280;33376;51.306;4.752;2023-04-09T07:37:29;102611.63;;;14.13;nan
23321;BME280;33376;51.306;4.752;2023-04-09T07:39:54;102589.53;;;13.88;nan
23321;BME280;33376;51.306;4.752;2023-04-09T07:42:19;102563.13;;;14.25;nan
23321;BME280;33376;51.306;4.752;2023-04-09T07:44:45;102527.97;;;14.56;nan
23321;BME280;33376;51.306;4.752;2023-04-09T07:47:11;102484.44;;;14.54;nan
23321;BME280;33376;51.306;4.752;2023-04-09T07:49:36;102493.59;;;14.28;nan
23321;BME280;33376;51.306;4.752;2023-04-09T07:52:02;102489.16;;;14.29;nan
23321;BME280;33376;51.306;4.752;2023-04-09T07:54:27;102476.25;;;14.18;nan
23321;BME280;33376;51.306;4.752;2023-04-09T07:56:53;102466.19;;;14.84;nan
23321;BME280;33376;51.306;4.752;2023-04-09T07:59:18;102420.28;;;15.65;nan
23321;BME280;33376;51.306;4.752;2023-04-09T08:01:43;102410.00;;;14.85;nan
23321;BME280;33376;51.306;4.752;2023-04-09T08:04:09;102389.31;;;15.61;nan
23321;BME280;33376;51.306;4.752;2023-04-09T08:06:36;102408.22;;;15.21;nan
23321;BME280;33376;51.306;4.752;2023-04-09T08:09:02;102373.16;;;15.97;nan
23321;BME280;33376;51.306;4.752;2023-04-09T08:11:27;102324.56;;;15.55;nan
23321;BME280;33376;51.306;4.752;2023-04-09T08:13:52;102325.81;;;15.48;nan
23321;BME280;33376;51.306;4.752;2023-04-09T08:16:17;102324.84;;;15.32;nan
23321;BME280;33376;51.306;4.752;2023-04-09T08:18:43;102305.25;;;16.63;nan
23321;BME280;33376;51.306;4.752;2023-04-09T08:21:08;102280.09;;;16.50;nan
23321;BME280;33376;51.306;4.752;2023-04-09T08:23:33;102239.00;;;16.51;nan
23321;BME280;33376;51.306;4.752;2023-04-09T08:25:58;102267.84;;;16.46;nan
23321;BME280;33376;51.306;4.752;2023-04-09T08:28:24;102215.47;;;16.56;nan
23321;BME280;33376;51.306;4.752;2023-04-09T08:30:49;102258.44;;;15.91;nan
23321;BME280;33376;51.306;4.752;2023-04-09T08:33:15;102295.16;;;16.20;nan
23321;BME280;33376;51.306;4.752;2023-04-09T08:35:40;102273.44;;;15.78;nan
23321;BME280;33376;51.306;4.752;2023-04-09T08:38:06;102293.19;;;16.24;nan
23321;BME280;33376;51.306;4.752;2023-04-09T08:40:34;102215.16;;;16.92;nan
23321;BME280;33376;51.306;4.752;2023-04-09T08:43:00;102136.22;;;17.96;nan
23321;BME280;33376;51.306;4.752;2023-04-09T08:45:28;102164.81;;;17.40;nan
23321;BME280;33376;51.306;4.752;2023-04-09T08:47:53;102152.88;;;17.74;nan
23321;BME280;33376;51.306;4.752;2023-04-09T08:50:18;102113.84;;;17.69;nan
23321;BME280;33376;51.306;4.752;2023-04-09T08:52:44;102090.75;;;18.33;nan
23321;BME280;33376;51.306;4.752;2023-04-09T08:55:10;102083.41;;;18.23;nan
23321;BME280;33376;51.306;4.752;2023-04-09T08:57:36;102172.41;;;16.61;nan
23321;BME280;33376;51.306;4.752;2023-04-09T09:00:02;102109.06;;;18.41;nan
23321;BME280;33376;51.306;4.752;2023-04-09T09:02:27;102078.88;;;18.11;nan
23321;BME280;33376;51.306;4.752;2023-04-09T09:04:52;102134.69;;;16.93;nan
23321;BME280;33376;51.306;4.752;2023-04-09T09:07:23;102242.34;;;16.08;nan
23321;BME280;33376;51.306;4.752;2023-04-09T09:09:49;102318.09;;;15.25;nan
23321;BME280;33376;51.306;4.752;2023-04-09T09:12:29;102365.81;;;14.41;nan
23321;BME280;33376;51.306;4.752;2023-04-09T09:14:54;102386.41;;;14.76;nan
23321;BME280;33376;51.306;4.752;2023-04-09T09:17:20;102405.53;;;15.04;nan
23321;BME280;33376;51.306;4.752;2023-04-09T09:19:45;102449.84;;;14.32;nan
23321;BME280;33376;51.306;4.752;2023-04-09T09:22:10;102467.38;;;14.18;nan
23321;BME280;33376;51.306;4.752;2023-04-09T09:24:46;102461.50;;;14.50;nan
23321;BME280;33376;51.306;4.752;2023-04-09T09:27:18;102472.56;;;14.61;nan
23321;BME280;33376;51.306;4.752;2023-04-09T09:29:55;102479.72;;;14.79;nan
23321;BME280;33376;51.306;4.752;2023-04-09T09:32:20;102491.19;;;14.81;nan
23321;BME280;33376;51.306;4.752;2023-04-09T09:35:04;102427.06;;;15.72;nan
23321;BME280;33376;51.306;4.752;2023-04-09T09:37:29;102357.19;;;15.78;nan
23321;BME280;33376;51.306;4.752;2023-04-09T09:39:55;102342.19;;;15.42;nan
23321;BME280;33376;51.306;4.752;2023-04-09T09:42:21;102373.50;;;15.21;nan
23321;BME280;33376;51.306;4.752;2023-04-09T09:44:46;102340.06;;;15.82;nan
23321;BME280;33376;51.306;4.752;2023-04-09T09:47:12;102247.94;;;16.03;nan
23321;BME280;33376;51.306;4.752;2023-04-09T09:49:38;102285.38;;;15.71;nan
23321;BME280;33376;51.306;4.752;2023-04-09T09:52:05;102253.03;;;16.08;nan
23321;BME280;33376;51.306;4.752;2023-04-09T09:54:34;102261.53;;;15.51;nan
23321;BME280;33376;51.306;4.752;2023-04-09T09:57:00;102296.06;;;15.20;nan
23321;BME280;33376;51.306;4.752;2023-04-09T09:59:31;102296.94;;;15.20;nan
23321;BME280;33376;51.306;4.752;2023-04-09T10:01:59;102336.78;;;15.08;nan
23321;BME280;33376;51.306;4.752;2023-04-09T10:04:25;102366.44;;;15.20;nan
23321;BME280;33376;51.306;4.752;2023-04-09T10:06:52;102344.84;;;15.42;nan
23321;BME280;33376;51.306;4.752;2023-04-09T10:09:17;102316.28;;;15.25;nan
23321;BME280;33376;51.306;4.752;2023-04-09T10:11:44;102357.31;;;15.24;nan
23321;BME280;33376;51.306;4.752;2023-04-09T10:14:12;102334.53;;;14.99;nan
23321;BME280;33376;51.306;4.752;2023-04-09T10:16:37;102347.66;;;15.22;nan
23321;BME280;33376;51.306;4.752;2023-04-09T10:19:02;102360.53;;;15.31;nan
23321;BME280;33376;51.306;4.752;2023-04-09T10:23:53;102325.94;;;15.28;nan
23321;BME280;33376;51.306;4.752;2023-04-09T10:26:19;102336.91;;;15.57;nan
23321;BME280;33376;51.306;4.752;2023-04-09T10:28:44;102323.94;;;15.50;nan
23321;BME280;33376;51.306;4.752;2023-04-09T10:31:10;102262.94;;;15.24;nan
23321;BME280;33376;51.306;4.752;2023-04-09T10:33:36;102281.41;;;15.28;nan
23321;BME280;33376;51.306;4.752;2023-04-09T10:36:19;102309.75;;;15.14;nan
23321;BME280;33376;51.306;4.752;2023-04-09T10:38:46;102307.25;;;15.28;nan
23321;BME280;33376;51.306;4.752;2023-04-09T10:41:22;102295.22;;;15.36;nan
23321;BME280;33376;51.306;4.752;2023-04-09T10:43:49;102259.06;;;15.63;nan
23321;BME280;33376;51.306;4.752;2023-04-09T10:46:28;102235.81;;;15.48;nan
23321;BME280;33376;51.306;4.752;2023-04-09T10:49:06;102321.09;;;15.53;nan
23321;BME280;33376;51.306;4.752;2023-04-09T10:51:35;102296.72;;;15.25;nan
23321;BME280;33376;51.306;4.752;2023-04-09T10:54:02;102277.13;;;15.75;nan
23321;BME280;33376;51.306;4.752;2023-04-09T10:56:28;102234.69;;;15.85;nan
23321;BME280;33376;51.306;4.752;2023-04-09T10:58:53;102166.94;;;15.69;nan
23321;BME280;33376;51.306;4.752;2023-04-09T11:01:21;102242.31;;;15.26;nan
23321;BME280;33376;51.306;4.752;2023-04-09T11:03:46;102198.28;;;15.50;nan
23321;BME280;33376;51.306;4.752;2023-04-09T11:06:30;102194.63;;;15.68;nan
23321;BME280;33376;51.306;4.752;2023-04-09T11:09:00;102227.16;;;15.60;nan
23321;BME280;33376;51.306;4.752;2023-04-09T11:11:25;102203.53;;;15.68;nan
23321;BME280;33376;51.306;4.752;2023-04-09T11:13:50;102210.06;;;15.63;nan
23321;BME280;33376;51.306;4.752;2023-04-09T11:16:16;102180.59;;;15.80;nan
23321;BME280;33376;51.306;4.752;2023-04-09T11:18:42;102177.81;;;15.81;nan
23321;BME280;33376;51.306;4.752;2023-04-09T11:21:07;102106.28;;;16.61;nan
23321;BME280;33376;51.306;4.752;2023-04-09T11:23:34;102137.75;;;16.58;nan
23321;BME280;33376;51.306;4.752;2023-04-09T11:25:59;102081.88;;;16.36;nan
23321;BME280;33376;51.306;4.752;2023-04-09T11:28:25;102109.66;;;16.65;nan
23321;BME280;33376;51.306;4.752;2023-04-09T11:30:51;102090.88;;;16.35;nan
23321;BME280;33376;51.306;4.752;2023-04-09T11:33:16;102127.19;;;16.09;nan
23321;BME280;33376;51.306;4.752;2023-04-09T11:35:41;102086.19;;;17.12;nan
23321;BME280;33376;51.306;4.752;2023-04-09T11:38:08;102099.09;;;16.32;nan
23321;BME280;33376;51.306;4.752;2023-04-09T11:40:33;102039.19;;;16.78;nan
23321;BME280;33376;51.306;4.752;2023-04-09T11:42:59;102002.63;;;17.05;nan
23321;BME280;33376;51.306;4.752;2023-04-09T11:45:25;101965.44;;;17.27;nan
23321;BME280;33376;51.306;4.752;2023-04-09T11:47:51;102038.09;;;16.37;nan
23321;BME280;33376;51.306;4.752;2023-04-09T11:50:16;102083.69;;;15.75;nan
23321;BME280;33376;51.306;4.752;2023-04-09T11:52:43;102098.72;;;15.62;nan
23321;BME280;33376;51.306;4.752;2023-04-09T11:55:09;102118.72;;;16.01;nan
23321;BME280;33376;51.306;4.752;2023-04-09T11:57:38;102033.06;;;16.90;nan
23321;BME280;33376;51.306;4.752;2023-04-09T12:00:08;101964.63;;;17.13;nan
23321;BME280;33376;51.306;4.752;2023-04-09T12:02:35;101951.25;;;17.39;nan
23321;BME280;33376;51.306;4.752;2023-04-09T12:05:03;102046.72;;;16.13;nan
23321;BME280;33376;51.306;4.752;2023-04-09T12:07:32;102086.69;;;15.84;nan
23321;BME280;33376;51.306;4.752;2023-04-09T12:10:01;102109.63;;;16.35;nan
23321;BME280;33376;51.306;4.752;2023-04-09T12:12:27;102056.38;;;16.31;nan
23321;BME280;33376;51.306;4.752;2023-04-09T12:14:52;102100.03;;;15.86;nan
23321;BME280;33376;51.306;4.752;2023-04-09T12:17:20;102116.75;;;15.74;nan
23321;BME280;33376;51.306;4.752;2023-04-09T12:19:47;102105.34;;;15.55;nan
23321;BME280;33376;51.306;4.752;2023-04-09T12:22:12;102164.50;;;15.49;nan
23321;BME280;33376;51.306;4.752;2023-04-09T12:24:37;102133.56;;;15.76;nan
23321;BME280;33376;51.306;4.752;2023-04-09T12:27:03;102077.22;;;16.40;nan
23321;BME280;33376;51.306;4.752;2023-04-09T12:29:28;102031.97;;;16.21;nan
23321;BME280;33376;51.306;4.752;2023-04-09T12:31:54;102045.44;;;16.04;nan
23321;BME280;33376;51.306;4.752;2023-04-09T12:34:20;102037.81;;;16.12;nan
23321;BME280;33376;51.306;4.752;2023-04-09T12:36:45;102040.69;;;16.39;nan
23321;BME280;33376;51.306;4.752;2023-04-09T12:39:10;101983.09;;;17.03;nan
23321;BME280;33376;51.306;4.752;2023-04-09T12:41:35;101954.38;;;16.91;nan
23321;BME280;33376;51.306;4.752;2023-04-09T12:44:01;101974.81;;;17.34;nan
23321;BME280;33376;51.306;4.752;2023-04-09T12:46:26;101948.13;;;17.86;nan
23321;BME280;33376;51.306;4.752;2023-04-09T12:48:52;101867.13;;;18.31;nan
23321;BME280;33376;51.306;4.752;2023-04-09T12:51:17;101874.63;;;17.49;nan
23321;BME280;33376;51.306;4.752;2023-04-09T12:53:42;101905.25;;;17.19;nan
23321;BME280;33376;51.306;4.752;2023-04-09T12:56:08;101905.75;;;17.38;nan
23321;BME280;33376;51.306;4.752;2023-04-09T12:58:33;101954.41;;;16.63;nan
23321;BME280;33376;51.306;4.752;2023-04-09T13:00:58;101963.84;;;16.55;nan
23321;BME280;33376;51.306;4.752;2023-04-09T13:03:24;101926.25;;;17.53;nan
23321;BME280;33376;51.306;4.752;2023-04-09T13:05:49;101893.69;;;17.04;nan
23321;BME280;33376;51.306;4.752;2023-04-09T13:08:15;101917.59;;;16.53;nan
23321;BME280;33376;51.306;4.752;2023-04-09T13:10:41;101943.84;;;16.32;nan
23321;BME280;33376;51.306;4.752;2023-04-09T13:13:06;101935.56;;;16.51;nan
23321;BME280;33376;51.306;4.752;2023-04-09T13:15:36;101890.91;;;16.65;nan
23321;BME280;33376;51.306;4.752;2023-04-09T13:18:01;101905.59;;;17.00;nan